Time;durP1;ratioP1;P1;durP2;ratioP2;P2;SDS_P1;SDS_P2;PMS_P1;PMS_P2;Temp;Humidity;BMP_temperature;BMP_pressure;BME280_temperature;BME280_humidity;BME280_pressure;Samples;Min_cycle;Max_cycle;Signal;HPM_P1;HPM_P2
2021/08/25 00:02:01;;;;;;;38.53;31.83;;;;;;;16.24;77.81;102874.91;5085337;28;20221;-74
2021/08/25 00:04:29;;;;;;;36.37;31.97;;;;;;;16.24;77.80;102883.00;5083575;28;20236;-73
2021/08/25 00:06:55;;;;;;;36.97;31.60;;;;;;;16.21;77.54;102880.72;5084397;28;21031;-74
2021/08/25 00:09:22;;;;;;;43.23;33.40;;;;;;;16.17;77.45;102876.81;5082712;28;20227;-73
2021/08/25 00:11:49;;;;;;;40.00;31.80;;;;;;;16.22;77.31;102879.69;5083021;28;20222;-74
2021/08/25 00:14:15;;;;;;;37.60;30.63;;;;;;;16.21;77.19;102869.94;5083020;28;20631;-74
2021/08/25 00:16:42;;;;;;;41.83;33.30;;;;;;;16.15;77.30;102868.09;5082397;28;20217;-74
2021/08/25 00:19:08;;;;;;;36.17;31.83;;;;;;;16.03;77.80;102864.38;5082507;28;20249;-74
2021/08/25 00:21:36;;;;;;;44.30;34.20;;;;;;;15.81;78.87;102861.91;5083480;28;20214;-73
2021/08/25 00:24:02;;;;;;;42.80;33.07;;;;;;;15.91;78.21;102866.88;5083530;28;20213;-74
2021/08/25 00:26:29;;;;;;;35.90;32.07;;;;;;;15.99;77.72;102860.44;5082803;28;20220;-74
2021/08/25 00:28:55;;;;;;;36.50;31.93;;;;;;;16.01;77.75;102859.19;5082434;28;20248;-73
2021/08/25 00:31:21;;;;;;;43.73;34.90;;;;;;;16.05;77.12;102862.31;5081734;28;20548;-74
2021/08/25 00:33:48;;;;;;;43.63;33.73;;;;;;;16.11;77.10;102856.06;5083285;28;20216;-74
2021/08/25 00:36:14;;;;;;;37.63;32.90;;;;;;;16.06;77.03;102843.22;5084095;28;20731;-74
2021/08/25 00:38:42;;;;;;;36.83;32.27;;;;;;;16.05;76.75;102849.66;5081587;28;20302;-74
2021/08/25 00:41:08;;;;;;;34.40;30.67;;;;;;;16.07;76.75;102842.16;5083819;28;20210;-74
2021/08/25 00:43:35;;;;;;;36.03;31.53;;;;;;;16.09;76.68;102858.13;5086369;28;20218;-74
2021/08/25 00:46:01;;;;;;;41.30;34.60;;;;;;;16.06;76.82;102842.38;5083276;28;20248;-74
2021/08/25 00:48:28;;;;;;;43.97;36.23;;;;;;;16.06;76.31;102848.59;5084053;28;20811;-74
2021/08/25 00:50:54;;;;;;;46.93;34.97;;;;;;;16.07;76.31;102844.88;5081988;28;20210;-74
2021/08/25 00:53:22;;;;;;;40.13;34.27;;;;;;;16.06;76.34;102842.38;5083358;28;20591;-74
2021/08/25 00:55:50;;;;;;;46.63;36.43;;;;;;;16.00;76.50;102849.44;5086487;28;20208;-74
2021/08/25 00:58:17;;;;;;;41.53;35.10;;;;;;;16.08;76.17;102846.53;5083266;28;20606;-74
2021/08/25 01:00:47;;;;;;;41.67;35.07;;;;;;;15.99;76.59;102844.25;5083668;28;20272;-73
2021/08/25 01:03:16;;;;;;;42.80;34.43;;;;;;;16.03;76.55;102848.19;5082761;28;20221;-74
2021/08/25 01:05:43;;;;;;;41.17;34.17;;;;;;;16.01;76.56;102832.25;5082920;28;20210;-74
2021/08/25 01:08:11;;;;;;;49.10;37.67;;;;;;;15.85;77.20;102840.75;5083719;28;20227;-74
2021/08/25 01:10:38;;;;;;;41.20;33.93;;;;;;;15.87;76.83;102836.78;5082786;28;20644;-74
2021/08/25 01:13:07;;;;;;;47.73;37.00;;;;;;;15.91;76.70;102831.00;5083435;28;20664;-74
2021/08/25 01:15:35;;;;;;;45.13;33.83;;;;;;;15.89;76.15;102828.53;5084482;28;20233;-74
2021/08/25 01:18:03;;;;;;;45.57;34.90;;;;;;;15.83;76.59;102827.47;5082194;28;20251;-74
2021/08/25 01:20:30;;;;;;;44.00;35.17;;;;;;;15.86;76.33;102827.06;5081713;28;20266;-74
2021/08/25 01:22:57;;;;;;;42.53;34.20;;;;;;;15.86;76.27;102827.06;5082251;28;20725;-74
2021/08/25 01:25:24;;;;;;;45.60;34.40;;;;;;;15.75;76.66;102826.84;5083159;28;20286;-74
2021/08/25 01:27:53;;;;;;;40.00;33.63;;;;;;;15.85;76.27;102816.47;5085519;28;20282;-74
2021/08/25 01:30:21;;;;;;;46.73;36.53;;;;;;;15.82;76.14;102820.44;5080367;28;20213;-74
2021/08/25 01:32:48;;;;;;;41.53;33.93;;;;;;;15.80;76.49;102813.59;5081207;28;20213;-74
2021/08/25 01:35:14;;;;;;;49.13;38.37;;;;;;;15.77;76.42;102811.34;5082800;28;20292;-74
2021/08/25 01:37:41;;;;;;;42.73;33.77;;;;;;;15.71;76.54;102812.97;5082145;28;20267;-73
2021/08/25 01:40:08;;;;;;;49.07;37.67;;;;;;;15.52;77.36;102808.41;5082130;28;20229;-74
2021/08/25 01:42:35;;;;;;;48.43;37.50;;;;;;;15.57;77.51;102809.44;5082178;28;20222;-74
2021/08/25 01:45:01;;;;;;;55.97;42.23;;;;;;;15.57;77.04;102808.59;5083398;28;20214;-74
2021/08/25 01:47:29;;;;;;;46.57;36.53;;;;;;;15.57;76.85;102812.13;5081239;28;20212;-74
2021/08/25 01:49:56;;;;;;;52.47;39.80;;;;;;;15.68;76.51;102813.41;5084339;28;20671;-74
2021/08/25 01:52:22;;;;;;;48.40;38.17;;;;;;;15.59;77.20;102804.69;5081233;28;20233;-74
2021/08/25 01:54:52;;;;;;;46.97;36.60;;;;;;;15.67;76.57;102803.66;5082755;28;20563;-73
2021/08/25 01:57:18;;;;;;;44.17;35.07;;;;;;;15.64;76.48;102797.88;5081047;28;20209;-73
2021/08/25 01:59:45;;;;;;;44.60;37.60;;;;;;;15.58;76.70;102794.09;5080134;28;20229;-73
2021/08/25 02:02:11;;;;;;;51.90;39.60;;;;;;;15.42;77.15;102792.66;5082021;28;20209;-73
2021/08/25 02:04:40;;;;;;;47.87;38.20;;;;;;;15.28;77.53;102791.00;5081415;28;20223;-73
2021/08/25 02:07:06;;;;;;;43.10;36.30;;;;;;;15.37;77.43;102791.59;5082868;28;20210;-73
2021/08/25 02:09:33;;;;;;;50.63;39.40;;;;;;;15.44;77.03;102790.56;5083644;28;20236;-73
2021/08/25 02:11:59;;;;;;;49.30;39.30;;;;;;;15.32;77.64;102789.53;5082057;28;20251;-73
2021/08/25 02:14:25;;;;;;;54.03;41.93;;;;;;;15.18;78.26;102794.09;5081210;28;20233;-73
2021/08/25 02:16:52;;;;;;;55.10;41.83;;;;;;;15.21;78.54;102795.53;5084582;28;20651;-73
2021/08/25 02:19:18;;;;;;;48.27;38.67;;;;;;;15.14;78.73;102797.41;5083831;28;20237;-73
2021/08/25 02:21:46;;;;;;;59.60;43.97;;;;;;;15.17;78.43;102789.75;5081912;28;20221;-73
2021/08/25 02:24:12;;;;;;;54.90;40.80;;;;;;;15.12;78.72;102784.16;5081432;28;20637;-73
2021/08/25 02:26:39;;;;;;;51.57;40.37;;;;;;;15.22;78.40;102789.13;5082977;28;20605;-73
2021/08/25 02:29:05;;;;;;;50.23;40.27;;;;;;;15.31;77.77;102794.09;5079521;28;20240;-73
2021/08/25 02:31:31;;;;;;;48.23;39.03;;;;;;;15.27;76.95;102783.97;5082855;28;20618;-73
2021/08/25 02:33:58;;;;;;;53.00;39.73;;;;;;;15.29;76.74;102785.41;5082673;28;20232;-73
2021/08/25 02:36:24;;;;;;;48.10;40.10;;;;;;;15.25;77.27;102781.47;5082876;28;20213;-73
2021/08/25 02:38:52;;;;;;;53.73;39.70;;;;;;;15.27;77.18;102776.72;5080866;28;20314;-73
2021/08/25 02:41:20;;;;;;;49.13;40.13;;;;;;;15.17;77.55;102772.75;5082264;28;20202;-73
2021/08/25 02:43:47;;;;;;;61.30;44.10;;;;;;;15.11;77.86;102773.56;5080877;28;20798;-73
2021/08/25 02:46:14;;;;;;;58.23;43.30;;;;;;;15.21;77.58;102776.69;5081596;28;20282;-73
2021/08/25 02:48:40;;;;;;;55.33;43.07;;;;;;;15.25;77.64;102772.56;5081977;28;20210;-73
2021/08/25 02:51:06;;;;;;;65.40;44.27;;;;;;;15.24;77.41;102769.00;5083165;28;20212;-72
2021/08/25 02:53:33;;;;;;;53.47;40.80;;;;;;;15.35;76.72;102764.88;5080754;28;20761;-73
2021/08/25 02:56:00;;;;;;;55.43;44.00;;;;;;;15.31;76.67;102767.16;5079885;28;20623;-73
2021/08/25 02:58:27;;;;;;;55.10;42.30;;;;;;;15.25;76.71;102757.25;5083023;28;20238;-73
2021/08/25 03:00:54;;;;;;;57.00;42.03;;;;;;;15.24;76.63;102757.41;5080816;28;20318;-73
2021/08/25 03:03:20;;;;;;;49.37;40.50;;;;;;;15.05;77.51;102753.69;5087384;28;20296;-73
2021/08/25 03:05:47;;;;;;;50.33;39.87;;;;;;;15.14;76.66;102757.03;5084764;28;20217;-73
2021/08/25 03:08:13;;;;;;;57.20;42.57;;;;;;;15.21;75.71;102744.38;5084204;28;20390;-73
2021/08/25 03:10:40;;;;;;;48.97;42.10;;;;;;;15.21;76.18;102744.38;5087845;28;21126;-73
2021/08/25 03:13:08;;;;;;;59.17;42.57;;;;;;;15.20;75.68;102734.63;5086386;28;20683;-73
2021/08/25 03:15:34;;;;;;;50.53;39.87;;;;;;;15.19;76.08;102735.69;5086758;28;20238;-73
2021/08/25 03:18:01;;;;;;;53.43;40.77;;;;;;;15.15;76.60;102729.06;5085202;28;20288;-73
2021/08/25 03:20:27;;;;;;;53.47;42.60;;;;;;;15.12;76.43;102743.78;5086751;28;20216;-73
2021/08/25 03:22:54;;;;;;;60.27;43.17;;;;;;;15.12;77.13;102746.47;5084531;28;20222;-73
2021/08/25 03:25:20;;;;;;;48.70;41.00;;;;;;;14.93;78.09;102739.19;5086191;28;20224;-73
2021/08/25 03:27:47;;;;;;;71.47;48.57;;;;;;;14.79;78.51;102737.50;5083348;28;20217;-73
2021/08/25 03:30:15;;;;;;;68.33;48.50;;;;;;;14.88;78.66;102734.44;5085938;28;20271;-73
2021/08/25 03:32:41;;;;;;;61.87;46.40;;;;;;;15.02;77.35;102728.03;5086724;28;20263;-73
2021/08/25 03:35:09;;;;;;;55.87;42.43;;;;;;;14.96;77.50;102725.31;5085281;28;20258;-73
2021/08/25 03:37:38;;;;;;;59.80;44.60;;;;;;;15.01;77.47;102717.47;5084142;28;20205;-73
2021/08/25 03:40:06;;;;;;;57.17;42.77;;;;;;;15.02;77.04;102711.88;5085153;28;20398;-72
2021/08/25 03:42:32;;;;;;;68.33;47.20;;;;;;;15.02;77.38;102713.72;5083878;28;20849;-73
2021/08/25 03:44:59;;;;;;;95.20;57.37;;;;;;;14.86;78.33;102709.56;5083862;28;20213;-73
2021/08/25 03:47:26;;;;;;;90.60;56.30;;;;;;;14.91;78.61;102704.41;5087837;28;20262;-73
2021/08/25 03:49:53;;;;;;;106.43;55.13;;;;;;;14.72;79.69;102705.19;5084531;28;20214;-73
2021/08/25 03:52:19;;;;;;;131.63;56.50;;;;;;;15.02;78.71;102706.47;5082687;28;20664;-73
2021/08/25 03:54:46;;;;;;;122.30;59.93;;;;;;;15.28;77.94;102702.13;5084350;28;20233;-73
2021/08/25 03:57:12;;;;;;;106.93;55.50;;;;;;;15.16;78.26;102707.31;5085338;28;20279;-73
2021/08/25 03:59:38;;;;;;;262.90;65.03;;;;;;;15.18;78.53;102696.31;5086438;28;20238;-73
2021/08/25 04:02:05;;;;;;;324.70;85.07;;;;;;;15.14;78.69;102704.00;5084133;28;20251;-73
2021/08/25 04:04:32;;;;;;;189.20;65.50;;;;;;;15.34;78.19;102703.97;5086503;28;20238;-73
2021/08/25 04:06:59;;;;;;;168.03;57.13;;;;;;;15.30;78.26;102706.25;5085614;28;20924;-73
2021/08/25 04:09:25;;;;;;;409.77;91.27;;;;;;;15.07;79.80;102710.41;5084690;28;20620;-73
2021/08/25 04:11:52;;;;;;;270.03;76.70;;;;;;;15.19;79.46;102700.69;5082018;28;20209;-73
2021/08/25 04:14:18;;;;;;;301.90;82.90;;;;;;;15.36;78.92;102692.97;5083119;28;20777;-73
2021/08/25 04:16:44;;;;;;;309.83;81.47;;;;;;;15.38;78.69;102697.16;5085074;28;20209;-73
2021/08/25 04:19:11;;;;;;;573.90;119.97;;;;;;;15.35;78.87;102697.53;5085031;28;20246;-72
2021/08/25 04:21:38;;;;;;;576.60;108.83;;;;;;;15.17;79.60;102702.75;5082768;28;20213;-73
2021/08/25 04:24:05;;;;;;;407.53;90.60;;;;;;;15.25;79.56;102697.16;5080038;28;20279;-73
2021/08/25 04:26:32;;;;;;;704.07;119.97;;;;;;;15.37;79.40;102692.78;5080591;28;20205;-72
2021/08/25 04:28:58;;;;;;;783.20;123.37;;;;;;;15.17;79.84;102700.06;5083379;28;20209;-72
2021/08/25 04:31:30;;;;;;;549.55;126.53;;;;;;;15.25;80.34;102689.91;5096011;28;20494;-81
2021/08/25 04:33:57;;;;;;;364.00;85.13;;;;;;;15.46;79.30;102683.44;5119445;28;20214;-81
2021/08/25 04:36:23;;;;;;;566.93;112.57;;;;;;;15.48;79.03;102688.63;5097761;28;20224;-81
2021/08/25 04:38:51;;;;;;;321.33;77.13;;;;;;;15.65;78.40;102684.47;5103795;28;20230;-81
2021/08/25 04:41:17;;;;;;;456.50;91.20;;;;;;;15.66;78.03;102683.44;5098436;28;20208;-81
2021/08/25 04:43:44;;;;;;;465.90;103.23;;;;;;;15.71;77.48;102678.22;5099478;28;20206;-81
2021/08/25 04:46:15;;;;;;;506.53;106.30;;;;;;;15.35;79.14;102680.56;5101720;28;20214;-81
2021/08/25 04:48:42;;;;;;;355.70;88.07;;;;;;;15.32;79.19;102689.88;5100644;28;20217;-80
2021/08/25 04:51:10;;;;;;;484.17;108.30;;;;;;;15.14;79.77;102687.03;5102205;28;20560;-80
2021/08/25 04:53:36;;;;;;;179.17;65.33;;;;;;;14.88;81.10;102691.38;5095885;28;20205;-80
2021/08/25 04:56:04;;;;;;;142.83;63.47;;;;;;;14.70;81.84;102688.44;5092819;28;20210;-81
2021/08/25 04:58:33;;;;;;;86.17;52.40;;;;;;;14.94;81.38;102692.38;5096152;28;20206;-80
2021/08/25 05:00:59;;;;;;;154.97;57.47;;;;;;;14.83;81.05;102687.63;5089292;28;20218;-80
2021/08/25 05:03:25;;;;;;;325.17;80.43;;;;;;;15.01;80.56;102691.38;5091883;28;20565;-80
2021/08/25 05:05:52;;;;;;;340.20;77.20;;;;;;;15.25;79.64;102689.91;5088920;28;20564;-81
2021/08/25 05:08:18;;;;;;;446.67;85.60;;;;;;;15.30;78.63;102689.28;5087662;28;20237;-81
2021/08/25 05:10:47;;;;;;;305.00;74.60;;;;;;;15.29;79.42;102690.31;5091794;28;20224;-82
2021/08/25 05:13:14;;;;;;;420.37;79.73;;;;;;;15.35;78.91;102680.56;5089909;28;20286;-82
2021/08/25 05:15:43;;;;;;;258.23;67.00;;;;;;;15.36;79.55;102685.72;5090743;28;20232;-82
2021/08/25 05:18:10;;;;;;;371.80;83.50;;;;;;;15.21;79.64;102683.28;5092655;28;20235;-82
2021/08/25 05:20:36;;;;;;;387.00;81.27;;;;;;;15.16;79.66;102687.63;5088517;28;20230;-81
2021/08/25 05:23:04;;;;;;;509.33;95.00;;;;;;;15.04;80.65;102692.81;5091584;28;20564;-81
2021/08/25 05:25:31;;;;;;;377.37;87.47;;;;;;;14.70;82.76;102689.25;5100118;28;20217;-81
2021/08/25 05:27:57;;;;;;;460.20;84.53;;;;;;;15.01;81.62;102682.47;5099614;28;20209;-80
2021/08/25 05:30:25;;;;;;;564.63;102.73;;;;;;;14.95;82.03;102680.59;5092863;28;20235;-81
2021/08/25 05:32:52;;;;;;;556.53;101.83;;;;;;;14.84;82.30;102682.03;5094675;28;20205;-80
2021/08/25 05:35:19;;;;;;;393.43;88.60;;;;;;;14.97;82.38;102682.03;5091287;28;20284;-81
2021/08/25 05:37:46;;;;;;;282.83;77.50;;;;;;;15.42;81.36;102686.78;5101218;28;20628;-80
2021/08/25 05:40:13;;;;;;;275.93;71.30;;;;;;;15.42;80.14;102695.69;5100147;28;20234;-81
2021/08/25 05:42:39;;;;;;;310.83;75.13;;;;;;;15.37;80.36;102700.03;5091008;28;20225;-81
2021/08/25 05:45:07;;;;;;;462.67;93.23;;;;;;;15.40;80.24;102692.38;5106330;28;20214;-81
2021/08/25 05:47:35;;;;;;;134.23;47.63;;;;;;;15.47;80.63;102697.75;5101972;28;20217;-81
2021/08/25 05:50:02;;;;;;;180.77;56.90;;;;;;;15.54;80.12;102703.94;5103200;28;20209;-81
2021/08/25 05:52:28;;;;;;;210.40;59.33;;;;;;;15.75;79.83;102705.56;5098564;28;20211;-81
2021/08/25 05:54:54;;;;;;;156.13;54.97;;;;;;;15.82;79.95;102706.41;5098380;28;20233;-81
2021/08/25 05:57:21;;;;;;;220.97;57.73;;;;;;;15.38;81.63;102707.09;5095810;28;20205;-81
2021/08/25 05:59:47;;;;;;;162.27;46.43;;;;;;;15.35;82.17;102710.19;5101653;28;20225;-81
2021/08/25 06:02:14;;;;;;;117.17;37.07;;;;;;;15.16;82.10;102698.41;5108076;28;20221;-81
2021/08/25 06:04:41;;;;;;;234.37;55.33;;;;;;;15.52;81.59;102708.72;5101460;28;20292;-82
2021/08/25 06:07:08;;;;;;;160.10;46.33;;;;;;;15.80;80.09;102697.69;5095358;28;20218;-83
2021/08/25 06:09:34;;;;;;;218.40;52.17;;;;;;;15.81;80.10;102697.47;5099168;28;20209;-81
2021/08/25 06:12:03;;;;;;;236.23;49.13;;;;;;;16.11;79.42;102697.78;5096420;28;20216;-82
2021/08/25 06:14:29;;;;;;;164.10;44.27;;;;;;;16.07;80.10;102701.13;5107634;28;20238;-81
2021/08/25 06:16:56;;;;;;;201.00;45.50;;;;;;;16.18;79.72;102701.28;5102802;28;20211;-81
2021/08/25 06:19:22;;;;;;;151.83;39.63;;;;;;;16.45;79.13;102703.84;5096162;28;20260;-81
2021/08/25 06:21:50;;;;;;;135.10;38.10;;;;;;;16.72;79.19;102699.13;5105350;28;20209;-82
2021/08/25 06:24:17;;;;;;;166.13;38.67;;;;;;;16.67;78.97;102696.25;5106597;28;20241;-82
2021/08/25 06:26:44;;;;;;;173.03;38.73;;;;;;;16.76;79.65;102698.47;5113422;28;20206;-82
2021/08/25 06:29:10;;;;;;;159.67;42.13;;;;;;;16.70;79.53;102698.53;5099652;28;20213;-82
2021/08/25 06:31:36;;;;;;;216.73;44.50;;;;;;;16.86;79.19;102697.16;5102630;28;20215;-82
2021/08/25 06:34:03;;;;;;;120.80;40.33;;;;;;;16.99;78.92;102695.19;5111158;28;20220;-82
2021/08/25 06:36:30;;;;;;;120.67;40.53;;;;;;;16.89;78.90;102696.72;5101617;28;20216;-82
2021/08/25 06:39:00;;;;;;;85.00;36.30;;;;;;;16.87;79.11;102698.81;5108398;28;20235;-82
2021/08/25 06:41:27;;;;;;;75.07;34.83;;;;;;;16.59;79.42;102694.63;5101717;28;20218;-82
2021/08/25 06:43:55;;;;;;;118.33;38.43;;;;;;;16.26;81.45;102692.13;5111223;28;20197;-82
2021/08/25 06:46:21;;;;;;;79.43;36.13;;;;;;;16.70;80.79;102685.03;5110506;28;20218;-82
2021/08/25 06:48:51;;;;;;;48.97;30.03;;;;;;;17.11;79.52;102686.34;5111369;28;20202;-82
2021/08/25 06:51:17;;;;;;;63.13;31.77;;;;;;;17.30;78.52;102685.38;5105341;28;20308;-82
2021/08/25 06:53:44;;;;;;;57.40;30.97;;;;;;;17.23;78.70;102682.72;5107461;28;20227;-82
2021/08/25 06:56:12;;;;;;;45.93;30.70;;;;;;;16.91;79.93;102683.84;5109557;28;20235;-82
2021/08/25 06:58:39;;;;;;;66.03;33.57;;;;;;;17.49;78.99;102680.78;5109570;28;20202;-82
2021/08/25 07:01:05;;;;;;;62.77;32.67;;;;;;;17.69;77.14;102691.44;5107834;28;20235;-82
2021/08/25 07:03:32;;;;;;;41.10;30.60;;;;;;;17.77;77.04;102691.94;5111243;28;20328;-82
2021/08/25 07:05:59;;;;;;;42.80;31.43;;;;;;;17.90;76.68;102688.25;5105263;28;20213;-82
2021/08/25 07:08:25;;;;;;;39.67;29.97;;;;;;;18.14;75.99;102686.50;5104473;28;20228;-82
2021/08/25 07:10:51;;;;;;;39.93;28.70;;;;;;;17.80;76.27;102683.41;5104263;28;20603;-82
2021/08/25 07:13:19;;;;;;;38.00;28.80;;;;;;;17.73;77.24;102681.81;5098912;28;20214;-82
2021/08/25 07:15:46;;;;;;;32.30;27.17;;;;;;;18.12;76.40;102684.03;5101452;28;20593;-82
2021/08/25 07:18:12;;;;;;;33.07;27.07;;;;;;;17.77;76.51;102693.81;5099745;28;20246;-82
2021/08/25 07:20:38;;;;;;;23.37;20.97;;;;;;;17.64;76.93;102692.88;5101076;28;20224;-82
2021/08/25 07:23:05;;;;;;;27.07;23.03;;;;;;;17.94;75.84;102684.06;5100050;28;20501;-82
2021/08/25 07:25:31;;;;;;;25.43;22.30;;;;;;;17.51;77.68;102694.91;5099776;28;20324;-82
2021/08/25 07:27:58;;;;;;;21.73;19.43;;;;;;;17.44;78.15;102695.00;5100208;28;20271;-82
2021/08/25 07:30:25;;;;;;;19.23;17.33;;;;;;;17.32;78.58;102684.09;5098324;28;20209;-82
2021/08/25 07:32:52;;;;;;;17.77;15.97;;;;;;;17.72;77.71;102689.09;5098492;28;20243;-82
2021/08/25 07:35:18;;;;;;;15.83;14.33;;;;;;;17.87;76.62;102680.59;5100018;28;20211;-82
2021/08/25 07:37:45;;;;;;;17.10;15.40;;;;;;;17.91;76.17;102685.34;5099637;28;20211;-82
2021/08/25 07:40:12;;;;;;;17.70;15.97;;;;;;;17.52;77.40;102675.75;5098541;28;20235;-82
2021/08/25 07:42:38;;;;;;;15.63;14.03;;;;;;;17.74;77.69;102676.19;5101307;28;20212;-82
2021/08/25 07:45:06;;;;;;;15.70;14.27;;;;;;;18.66;74.72;102670.59;5100047;28;20218;-82
2021/08/25 07:47:34;;;;;;;15.63;14.03;;;;;;;18.56;73.69;102673.84;5098726;28;20224;-81
2021/08/25 07:50:00;;;;;;;17.60;14.77;;;;;;;18.53;74.51;102668.88;5100697;28;20587;-82
2021/08/25 07:52:26;;;;;;;19.57;14.50;;;;;;;18.72;73.70;102673.22;5097621;28;20197;-81
2021/08/25 07:54:53;;;;;;;15.60;14.20;;;;;;;19.21;71.66;102667.59;5101474;28;20228;-82
2021/08/25 07:57:19;;;;;;;16.17;14.67;;;;;;;19.12;71.97;102659.00;5097024;28;20274;-81
2021/08/25 07:59:46;;;;;;;18.40;16.10;;;;;;;18.74;73.40;102648.59;5097533;28;20229;-81
2021/08/25 08:02:12;;;;;;;17.07;15.43;;;;;;;18.75;72.58;102659.19;5096744;28;20250;-81
2021/08/25 08:04:40;;;;;;;14.30;12.80;;;;;;;19.48;71.28;102654.38;5096244;28;20200;-80
2021/08/25 08:07:06;;;;;;;15.70;14.13;;;;;;;19.93;70.92;102649.09;5096605;28;20201;-81
2021/08/25 08:09:32;;;;;;;11.60;10.17;;;;;;;20.92;66.57;102645.97;5096019;28;20331;-81
2021/08/25 08:11:59;;;;;;;11.77;10.23;;;;;;;21.20;63.37;102634.16;5096512;28;20208;-81
2021/08/25 08:14:26;;;;;;;10.77;8.97;;;;;;;21.23;64.87;102637.22;5096518;28;20225;-80
2021/08/25 08:16:55;;;;;;;6.27;5.67;;;;;;;21.11;63.20;102642.75;5099140;28;20210;-80
2021/08/25 08:19:23;;;;;;;6.53;5.70;;;;;;;20.97;63.61;102636.03;5101800;28;20245;-80
2021/08/25 08:21:51;;;;;;;9.77;7.30;;;;;;;20.39;63.33;102628.25;5097173;28;20897;-81
2021/08/25 08:24:18;;;;;;;10.57;8.07;;;;;;;19.71;64.68;102629.13;5100092;28;20238;-81
2021/08/25 08:26:46;;;;;;;8.03;7.27;;;;;;;19.85;66.02;102635.94;5096173;28;20952;-81
2021/08/25 08:29:12;;;;;;;7.63;6.93;;;;;;;20.44;62.62;102620.19;5098800;28;20221;-80
2021/08/25 08:31:39;;;;;;;10.03;8.47;;;;;;;20.07;65.30;102627.91;5095817;28;20638;-81
2021/08/25 08:34:05;;;;;;;10.30;9.40;;;;;;;19.82;65.13;102620.97;5097921;28;20211;-81
2021/08/25 08:36:32;;;;;;;11.43;10.33;;;;;;;19.91;65.70;102624.91;5098923;28;20659;-80
2021/08/25 08:39:00;;;;;;;11.27;10.27;;;;;;;20.00;68.29;102633.50;5098177;28;20241;-80
2021/08/25 08:41:27;;;;;;;8.67;7.97;;;;;;;20.66;64.88;102625.72;5096576;28;20565;-81
2021/08/25 08:43:54;;;;;;;9.33;8.30;;;;;;;21.08;62.08;102621.47;5100076;28;20217;-81
2021/08/25 08:46:22;;;;;;;10.27;7.27;;;;;;;20.92;59.94;102622.34;5098042;28;20281;-80
2021/08/25 08:48:50;;;;;;;9.67;8.77;;;;;;;20.39;62.47;102625.53;5098574;28;20236;-81
2021/08/25 08:51:18;;;;;;;12.03;10.83;;;;;;;20.16;63.21;102629.19;5096763;28;20217;-80
2021/08/25 08:53:45;;;;;;;9.53;7.80;;;;;;;20.41;60.78;102626.09;5092941;28;20340;-80
2021/08/25 08:56:12;;;;;;;10.77;8.90;;;;;;;19.81;63.10;102629.31;5091831;28;20210;-80
2021/08/25 08:58:39;;;;;;;10.83;8.53;;;;;;;19.47;65.42;102618.31;5094353;28;20199;-80
2021/08/25 09:01:06;;;;;;;9.60;8.20;;;;;;;19.67;65.10;102632.31;5094907;28;20240;-80
2021/08/25 09:03:35;;;;;;;8.63;6.70;;;;;;;19.31;66.07;102635.28;5093060;28;20225;-80
2021/08/25 09:06:02;;;;;;;6.43;5.80;;;;;;;18.62;66.62;102631.47;5092552;28;20209;-80
2021/08/25 09:08:30;;;;;;;6.97;6.20;;;;;;;18.59;68.00;102637.38;5093567;28;20251;-80
2021/08/25 09:11:01;;;;;;;6.30;5.70;;;;;;;18.74;67.43;102635.88;5088931;28;20227;-80
2021/08/25 09:13:35;;;;;;;5.53;3.57;;;;;;;18.51;64.99;102628.50;5093183;28;20210;-80
2021/08/25 09:16:02;;;;;;;4.67;3.80;;;;;;;18.97;65.40;102631.53;5092716;28;20199;-80
2021/08/25 09:18:29;;;;;;;5.93;3.50;;;;;;;19.25;65.08;102634.38;5093609;28;20250;-80
2021/08/25 09:20:55;;;;;;;4.97;3.40;;;;;;;20.50;60.51;102617.34;5092328;28;20229;-79
2021/08/25 09:23:24;;;;;;;4.70;3.80;;;;;;;20.29;61.68;102618.00;5085756;28;20225;-76
2021/08/25 09:25:52;;;;;;;6.33;5.00;;;;;;;19.80;61.16;102617.63;5083830;28;20328;-75
